Time;durP1;ratioP1;P1;durP2;ratioP2;P2;SDS_P1;SDS_P2;PMS_P1;PMS_P2;Temp;Humidity;BMP_temperature;BMP_pressure;BME280_temperature;BME280_humidity;BME280_pressure;Samples;Min_cycle;Max_cycle;Signal;HPM_P1;HPM_P2
2022/05/25 00:00:12;;;;;;;8.53;5.50;;;11.80;87.60;;;;;;5059078;28;20187;-84
2022/05/25 00:02:39;;;;;;;5.57;5.07;;;11.70;87.60;;;;;;5058795;28;20713;-85
2022/05/25 00:05:06;;;;;;;6.63;5.33;;;11.60;87.80;;;;;;5058523;28;20184;-85
2022/05/25 00:07:32;;;;;;;6.27;4.83;;;11.50;88.00;;;;;;5058543;28;20207;-85
2022/05/25 00:09:57;;;;;;;5.70;5.10;;;11.50;88.10;;;;;;5058668;28;20183;-85
2022/05/25 00:12:23;;;;;;;10.67;4.97;;;11.60;88.20;;;;;;5059695;28;20199;-85
2022/05/25 00:14:48;;;;;;;6.97;4.93;;;11.50;87.90;;;;;;5058510;28;20266;-84
2022/05/25 00:17:14;;;;;;;9.40;6.00;;;11.50;87.90;;;;;;5059435;28;20583;-86
2022/05/25 00:22:24;;;;;;;8.63;7.43;;;11.50;88.20;;;;;;5059714;28;20176;-85
2022/05/25 00:24:50;;;;;;;12.33;8.93;;;11.60;88.40;;;;;;5059599;28;20545;-86
2022/05/25 00:27:17;;;;;;;10.33;8.27;;;11.60;88.30;;;;;;5058205;28;20183;-86
2022/05/25 00:29:43;;;;;;;12.67;8.00;;;11.60;88.70;;;;;;5059590;28;20586;-85
2022/05/25 00:32:09;;;;;;;9.97;7.67;;;11.70;88.60;;;;;;5059592;28;20249;-85
2022/05/25 00:34:34;;;;;;;10.50;8.10;;;11.70;88.90;;;;;;5058333;28;20176;-85
2022/05/25 00:37:01;;;;;;;10.17;7.70;;;11.70;89.00;;;;;;5058548;28;20230;-85
2022/05/25 00:39:27;;;;;;;8.70;7.90;;;11.70;89.10;;;;;;5059475;28;20674;-84
2022/05/25 00:41:52;;;;;;;9.33;8.37;;;11.70;89.20;;;;;;5058515;28;20187;-87
2022/05/25 00:44:18;;;;;;;9.33;7.73;;;11.60;89.50;;;;;;5058876;28;20665;-86
2022/05/25 00:46:45;;;;;;;9.53;8.63;;;11.70;89.80;;;;;;5059040;28;20215;-86
2022/05/25 00:49:23;;;;;;;14.00;9.10;;;11.80;89.90;;;;;;5058865;28;20196;-85
2022/05/25 00:51:54;;;;;;;12.83;8.93;;;11.80;90.00;;;;;;5059841;28;20192;-85
2022/05/25 00:54:26;;;;;;;10.10;9.10;;;11.80;89.90;;;;;;5058600;28;20156;-85
2022/05/25 00:56:58;;;;;;;9.80;8.83;;;11.80;89.90;;;;;;5058130;28;20157;-86
2022/05/25 00:59:32;;;;;;;9.77;8.30;;;11.80;89.90;;;;;;5059499;28;20168;-85
2022/05/25 01:01:58;;;;;;;10.00;8.43;;;11.80;89.80;;;;;;5058236;28;20171;-85
2022/05/25 01:04:25;;;;;;;10.30;8.57;;;11.80;89.70;;;;;;5059376;28;20176;-85
2022/05/25 01:07:09;;;;;;;10.87;8.70;;;11.80;89.70;;;;;;5058090;28;20183;-86
2022/05/25 01:10:00;;;;;;;9.33;8.40;;;11.80;89.60;;;;;;5054166;28;20218;-85
2022/05/25 01:12:31;;;;;;;12.40;8.50;;;11.80;89.70;;;;;;5054985;28;20195;-85
2022/05/25 01:15:03;;;;;;;17.70;8.83;;;11.70;89.70;;;;;;5056163;28;20160;-85
2022/05/25 01:17:47;;;;;;;13.73;9.27;;;11.70;89.80;;;;;;5056808;28;20188;-86
2022/05/25 01:20:28;;;;;;;14.37;9.30;;;11.60;89.90;;;;;;5055972;28;20198;-86
2022/05/25 01:23:13;;;;;;;9.73;8.83;;;11.70;90.00;;;;;;5056914;28;20156;-87
2022/05/25 01:26:15;;;;;;;10.07;8.87;;;11.70;90.10;;;;;;5057046;28;20624;-88
2022/05/25 01:29:13;;;;;;;11.37;9.50;;;11.70;90.10;;;;;;5055438;28;20569;-85
2022/05/25 01:31:52;;;;;;;11.83;9.93;;;11.70;90.10;;;;;;5022843;28;20185;-86
2022/05/25 01:34:39;;;;;;;15.13;9.43;;;11.70;90.10;;;;;;5055196;28;20161;-86
2022/05/25 01:37:37;;;;;;;11.07;8.83;;;11.70;90.00;;;;;;5056476;28;20243;-85
2022/05/25 01:40:14;;;;;;;15.83;9.47;;;11.60;90.00;;;;;;5056283;28;20156;-86
2022/05/25 01:43:03;;;;;;;11.30;8.67;;;11.60;90.00;;;;;;5055000;28;20548;-86
2022/05/25 01:45:33;;;;;;;9.13;8.23;;;11.60;89.80;;;;;;5056477;28;20256;-86
2022/05/25 01:48:04;;;;;;;9.67;8.73;;;11.60;89.70;;;;;;5054923;28;20283;-86
2022/05/25 01:50:53;;;;;;;12.63;8.97;;;11.50;89.70;;;;;;5055182;28;20169;-86
2022/05/25 01:53:23;;;;;;;9.60;8.60;;;11.60;89.80;;;;;;5055841;28;20283;-86
2022/05/25 01:55:53;;;;;;;12.80;8.77;;;11.50;89.60;;;;;;5054978;28;20160;-86
2022/05/25 01:58:21;;;;;;;11.00;8.60;;;11.60;90.00;;;;;;5054296;28;20204;-85
2022/05/25 02:00:50;;;;;;;9.20;7.90;;;11.70;89.80;;;;;;5054337;28;20191;-85
2022/05/25 02:06:10;;;;;;;10.30;8.33;;;11.70;89.60;;;;;;5056098;28;20171;-85
2022/05/25 02:08:42;;;;;;;9.80;8.80;;;11.60;89.60;;;;;;5054471;28;20195;-85
2022/05/25 02:11:37;;;;;;;10.33;8.07;;;11.60;89.60;;;;;;5055743;28;20573;-85
2022/05/25 02:14:48;;;;;;;10.63;8.43;;;11.50;89.50;;;;;;5055597;28;20669;-86
2022/05/25 02:17:26;;;;;;;9.23;8.27;;;11.50;89.60;;;;;;5032225;28;20245;-85
2022/05/25 02:20:15;;;;;;;9.17;8.27;;;11.40;89.60;;;;;;5054063;28;20630;-85
2022/05/25 02:22:42;;;;;;;11.70;8.23;;;11.40;89.60;;;;;;5054185;28;20184;-86
2022/05/25 02:25:39;;;;;;;11.67;8.37;;;11.40;89.70;;;;;;5055202;28;20167;-85
2022/05/25 02:28:30;;;;;;;10.63;8.43;;;11.40;89.70;;;;;;5053962;28;20302;-85
2022/05/25 02:31:00;;;;;;;9.67;8.73;;;11.40;89.50;;;;;;5053954;28;20168;-85
2022/05/25 02:33:41;;;;;;;9.50;8.13;;;11.40;89.60;;;;;;5054325;28;20192;-85
2022/05/25 02:36:09;;;;;;;11.93;8.37;;;11.40;89.60;;;;;;5055159;28;20164;-85
2022/05/25 02:38:37;;;;;;;12.50;8.40;;;11.30;89.60;;;;;;5054405;28;20207;-85
2022/05/25 02:41:24;;;;;;;9.13;8.23;;;11.30;89.60;;;;;;5054988;28;20670;-85
2022/05/25 02:43:50;;;;;;;8.80;8.10;;;11.30;89.70;;;;;;5053409;28;20596;-86
2022/05/25 02:46:15;;;;;;;11.20;8.07;;;11.20;89.70;;;;;;5054474;28;20165;-87
2022/05/25 02:48:41;;;;;;;9.70;8.70;;;11.20;89.70;;;;;;5053046;28;20203;-85
2022/05/25 02:51:08;;;;;;;8.83;8.00;;;11.10;89.70;;;;;;5054323;28;20210;-85
2022/05/25 02:53:34;;;;;;;8.73;7.90;;;11.10;89.90;;;;;;5053023;28;20196;-86
2022/05/25 02:56:03;;;;;;;12.73;8.33;;;10.90;89.70;;;;;;5054310;28;20532;-86
2022/05/25 02:58:29;;;;;;;9.43;7.67;;;10.90;89.80;;;;;;5052751;28;20198;-85
2022/05/25 03:00:55;;;;;;;13.93;9.07;;;10.90;89.90;;;;;;5053056;28;20260;-85
2022/05/25 03:03:21;;;;;;;13.17;7.93;;;10.80;89.80;;;;;;5054106;28;20172;-86
2022/05/25 03:05:47;;;;;;;11.07;8.67;;;10.80;89.90;;;;;;5054498;28;20648;-86
2022/05/25 03:08:13;;;;;;;8.90;8.00;;;10.90;89.80;;;;;;5052649;28;20271;-85
2022/05/25 03:10:39;;;;;;;8.60;7.80;;;10.90;89.70;;;;;;5053854;28;20196;-85
2022/05/25 03:13:06;;;;;;;8.57;7.77;;;10.90;89.50;;;;;;5053724;28;20257;-85
2022/05/25 03:15:32;;;;;;;9.30;8.17;;;10.90;89.50;;;;;;5053922;28;20214;-86
2022/05/25 03:17:58;;;;;;;11.37;7.83;;;10.90;89.50;;;;;;5052743;28;20274;-86
2022/05/25 03:20:23;;;;;;;9.27;8.07;;;10.80;89.50;;;;;;5052766;28;20602;-85
2022/05/25 03:22:49;;;;;;;10.37;8.00;;;10.80;89.60;;;;;;5052881;28;20670;-86
2022/05/25 03:25:15;;;;;;;7.90;7.00;;;10.80;89.70;;;;;;5053015;28;20179;-85
2022/05/25 03:27:40;;;;;;;8.97;7.83;;;10.80;89.80;;;;;;5053104;28;20225;-85
2022/05/25 03:30:08;;;;;;;12.70;8.83;;;10.80;89.70;;;;;;5053938;28;20538;-85
2022/05/25 03:32:34;;;;;;;9.53;8.37;;;10.90;89.80;;;;;;5052003;28;20206;-86
2022/05/25 03:35:00;;;;;;;9.07;7.70;;;10.80;89.70;;;;;;5052366;28;20646;-85
2022/05/25 03:37:26;;;;;;;9.47;8.03;;;10.70;89.70;;;;;;5052508;28;20636;-86
2022/05/25 03:39:51;;;;;;;9.03;7.43;;;10.60;89.80;;;;;;5052781;28;20266;-86
2022/05/25 03:42:18;;;;;;;9.03;8.13;;;10.50;89.90;;;;;;5052437;28;20179;-86
2022/05/25 03:44:44;;;;;;;11.70;8.20;;;10.50;90.00;;;;;;5052359;28;20597;-86
2022/05/25 03:47:09;;;;;;;9.47;8.57;;;10.50;89.90;;;;;;5052405;28;20179;-86
2022/05/25 03:49:35;;;;;;;9.40;8.40;;;10.50;90.10;;;;;;5052125;28;20188;-86
2022/05/25 03:52:01;;;;;;;9.50;8.50;;;10.60;90.10;;;;;;5053767;28;20227;-86
2022/05/25 03:54:27;;;;;;;11.47;7.93;;;10.60;89.90;;;;;;5053428;28;20221;-85
2022/05/25 03:56:53;;;;;;;8.73;7.30;;;10.70;89.70;;;;;;5053565;28;20167;-86
2022/05/25 03:59:19;;;;;;;8.80;7.90;;;10.70;89.40;;;;;;5052519;28;20195;-86
2022/05/25 04:01:45;;;;;;;8.50;7.70;;;10.70;89.20;;;;;;5052306;28;20723;-86
2022/05/25 04:04:10;;;;;;;9.17;8.27;;;10.80;88.90;;;;;;5053634;28;20616;-86
2022/05/25 04:06:36;;;;;;;8.40;7.60;;;10.90;88.70;;;;;;5052106;28;20221;-85
2022/05/25 04:09:02;;;;;;;9.30;8.10;;;11.00;88.60;;;;;;5053958;28;20658;-86
2022/05/25 04:11:28;;;;;;;9.70;8.70;;;10.90;88.60;;;;;;5052228;28;20203;-85
2022/05/25 04:13:53;;;;;;;10.47;8.53;;;11.00;88.70;;;;;;5053559;28;20632;-85
2022/05/25 04:16:19;;;;;;;9.03;7.90;;;11.00;88.80;;;;;;5052106;28;20183;-85
2022/05/25 04:18:45;;;;;;;9.87;8.87;;;11.00;88.80;;;;;;5052987;28;20195;-85
2022/05/25 04:21:10;;;;;;;10.63;8.23;;;11.10;89.00;;;;;;5053219;28;20195;-84
2022/05/25 04:23:36;;;;;;;9.37;8.13;;;11.00;89.10;;;;;;5052969;28;20173;-84
2022/05/25 04:26:01;;;;;;;9.97;8.37;;;11.10;89.20;;;;;;5053307;28;20175;-84
2022/05/25 04:28:27;;;;;;;14.23;8.70;;;11.10;89.20;;;;;;5053017;28;20192;-85
2022/05/25 04:30:52;;;;;;;14.50;9.10;;;11.10;89.30;;;;;;5051756;28;20181;-85
2022/05/25 04:33:18;;;;;;;9.93;8.67;;;11.10;89.40;;;;;;5052805;28;20196;-85
2022/05/25 04:35:44;;;;;;;10.20;8.70;;;11.20;89.50;;;;;;5051734;28;20168;-85
2022/05/25 04:38:14;;;;;;;10.03;8.97;;;11.10;89.50;;;;;;5051433;28;20242;-85
2022/05/25 04:40:42;;;;;;;9.90;9.00;;;11.10;89.60;;;;;;5051422;28;20526;-85
2022/05/25 04:43:13;;;;;;;10.20;9.13;;;11.20;89.70;;;;;;5051793;28;20721;-85
2022/05/25 04:45:41;;;;;;;16.17;9.37;;;11.20;89.80;;;;;;5055337;28;20207;-85
2022/05/25 04:48:07;;;;;;;14.87;10.00;;;11.20;89.90;;;;;;5055195;28;20685;-85
2022/05/25 04:50:36;;;;;;;10.30;9.30;;;11.20;90.00;;;;;;5056424;28;20206;-85
2022/05/25 04:53:03;;;;;;;11.10;9.23;;;11.20;90.10;;;;;;5055162;28;20206;-84
2022/05/25 04:58:20;;;;;;;15.67;10.07;;;11.30;90.40;;;;;;5056605;28;20198;-85
2022/05/25 05:00:45;;;;;;;13.07;10.83;;;11.30;90.50;;;;;;5056184;28;20168;-85
2022/05/25 05:03:11;;;;;;;12.63;10.77;;;11.30;90.60;;;;;;5054961;28;20524;-85
2022/05/25 05:05:37;;;;;;;12.10;10.63;;;11.30;90.60;;;;;;5055026;28;20172;-85
2022/05/25 05:08:03;;;;;;;12.97;11.10;;;11.30;90.70;;;;;;5054771;28;20235;-85
2022/05/25 05:10:28;;;;;;;12.73;10.73;;;11.40;90.70;;;;;;5054834;28;20738;-85
2022/05/25 05:12:54;;;;;;;11.37;9.93;;;11.40;90.70;;;;;;5054700;28;20294;-85
2022/05/25 05:15:21;;;;;;;15.67;11.67;;;11.60;90.90;;;;;;5054740;28;20219;-84
2022/05/25 05:17:46;;;;;;;13.30;11.80;;;11.60;90.90;;;;;;5054560;28;20304;-85
2022/05/25 05:20:12;;;;;;;14.07;11.87;;;11.70;90.80;;;;;;5054720;28;20612;-85
2022/05/25 05:22:38;;;;;;;11.93;10.73;;;11.80;90.80;;;;;;5054539;28;20180;-85
2022/05/25 05:25:04;;;;;;;13.07;10.60;;;11.80;90.60;;;;;;5054538;28;20241;-85
2022/05/25 05:27:30;;;;;;;11.63;10.43;;;11.90;90.30;;;;;;5054302;28;20196;-85
2022/05/25 05:30:02;;;;;;;13.83;10.60;;;12.00;90.10;;;;;;5054420;28;20219;-85
2022/05/25 05:32:30;;;;;;;13.90;10.30;;;12.10;89.70;;;;;;5055849;28;20195;-87
2022/05/25 05:34:56;;;;;;;11.43;10.20;;;12.10;89.60;;;;;;5054318;28;20172;-85
2022/05/25 05:37:36;;;;;;;10.20;9.20;;;12.20;89.50;;;;;;5055169;28;20199;-85
2022/05/25 05:40:04;;;;;;;11.07;9.70;;;12.30;89.30;;;;;;5054053;28;20191;-86
2022/05/25 05:42:30;;;;;;;15.97;10.43;;;12.30;89.30;;;;;;5054144;28;20674;-85
2022/05/25 05:45:04;;;;;;;11.57;9.93;;;12.40;89.00;;;;;;5055953;28;20215;-85
2022/05/25 05:47:37;;;;;;;10.00;9.00;;;12.40;88.80;;;;;;5055152;28;20192;-85
2022/05/25 05:50:05;;;;;;;11.47;10.00;;;12.50;88.80;;;;;;5054094;28;20306;-85
2022/05/25 05:52:32;;;;;;;9.20;8.33;;;12.70;88.80;;;;;;5055078;28;20206;-85
2022/05/25 05:54:58;;;;;;;12.57;9.00;;;12.60;87.80;;;;;;5054603;28;20168;-85
2022/05/25 05:57:24;;;;;;;11.90;8.67;;;12.70;87.90;;;;;;5055395;28;20290;-86
2022/05/25 05:59:49;;;;;;;10.83;7.87;;;12.80;87.90;;;;;;5054779;28;20171;-85
2022/05/25 06:02:15;;;;;;;9.57;8.17;;;12.80;87.50;;;;;;5056027;28;20184;-86
2022/05/25 06:04:40;;;;;;;14.47;7.83;;;12.80;87.70;;;;;;5054464;28;20180;-86
2022/05/25 06:07:06;;;;;;;11.10;7.57;;;12.90;87.30;;;;;;5054540;28;20187;-85
2022/05/25 06:09:32;;;;;;;10.80;8.13;;;12.90;86.80;;;;;;5054649;28;20180;-86
2022/05/25 06:11:57;;;;;;;11.03;8.80;;;13.00;86.50;;;;;;5054309;28;20204;-87
2022/05/25 06:14:23;;;;;;;9.10;7.57;;;13.00;86.40;;;;;;5055597;28;20180;-86
2022/05/25 06:19:37;;;;;;;9.43;7.57;;;13.20;86.00;;;;;;5055917;28;20535;-87
2022/05/25 06:22:10;;;;;;;8.87;7.60;;;13.10;85.20;;;;;;5055558;28;20172;-88
2022/05/25 06:24:45;;;;;;;9.30;7.83;;;13.20;86.00;;;;;;5054309;28;20691;-87
2022/05/25 06:27:12;;;;;;;9.50;7.30;;;13.30;85.80;;;;;;5054277;28;20183;-87
2022/05/25 06:29:40;;;;;;;8.73;7.03;;;13.30;85.20;;;;;;5055165;28;20179;-87
2022/05/25 06:32:07;;;;;;;14.07;7.23;;;13.40;84.50;;;;;;5053966;28;20692;-87
2022/05/25 06:34:33;;;;;;;7.60;6.80;;;13.40;84.30;;;;;;5053885;28;20642;-87
2022/05/25 06:36:59;;;;;;;7.77;6.80;;;13.50;84.20;;;;;;5055237;28;20168;-86
2022/05/25 06:39:25;;;;;;;9.17;6.93;;;13.50;83.60;;;;;;5054133;28;20688;-87
2022/05/25 06:41:50;;;;;;;9.73;7.77;;;13.50;84.10;;;;;;5054696;28;20199;-87
2022/05/25 06:44:17;;;;;;;7.93;7.17;;;13.60;83.90;;;;;;5054839;28;20548;-87
2022/05/25 06:46:43;;;;;;;10.47;7.07;;;13.60;83.50;;;;;;5054782;28;20172;-87
2022/05/25 06:49:08;;;;;;;9.13;7.33;;;13.60;84.10;;;;;;5053301;28;20708;-87
2022/05/25 06:51:35;;;;;;;10.20;6.23;;;13.80;84.40;;;;;;5054873;28;20180;-87
2022/05/25 06:54:01;;;;;;;9.13;6.47;;;13.80;83.10;;;;;;5055099;28;20215;-87
2022/05/25 06:56:28;;;;;;;7.70;6.17;;;13.90;82.90;;;;;;5053798;28;20176;-87
2022/05/25 06:58:55;;;;;;;10.33;6.47;;;13.90;83.30;;;;;;5053969;28;20632;-87
2022/05/25 07:01:22;;;;;;;7.40;6.63;;;14.10;84.00;;;;;;5054927;28;20529;-87
2022/05/25 07:03:47;;;;;;;8.60;6.20;;;14.00;82.40;;;;;;5053376;28;20176;-86
2022/05/25 07:06:15;;;;;;;12.00;7.47;;;14.10;82.10;;;;;;5052477;28;20310;-88
2022/05/25 07:08:40;;;;;;;9.87;7.27;;;14.20;83.30;;;;;;5053540;28;20200;-87
2022/05/25 07:11:06;;;;;;;8.57;7.50;;;14.30;83.10;;;;;;5053292;28;20184;-87
2022/05/25 07:13:32;;;;;;;7.53;6.70;;;14.20;82.60;;;;;;5053947;28;20199;-86
2022/05/25 07:16:04;;;;;;;7.87;6.53;;;14.30;81.80;;;;;;5052976;28;20222;-87
2022/05/25 07:18:30;;;;;;;7.50;6.30;;;14.40;82.50;;;;;;5052963;28;20234;-87
2022/05/25 07:21:27;;;;;;;6.87;6.20;;;14.40;81.70;;;;;;5052981;28;20642;-88
2022/05/25 07:23:55;;;;;;;9.80;5.60;;;14.50;81.10;;;;;;5053024;28;20277;-88
2022/05/25 07:26:22;;;;;;;9.37;5.00;;;14.50;80.00;;;;;;5052933;28;20648;-88
2022/05/25 07:28:49;;;;;;;5.70;5.10;;;14.70;81.40;;;;;;5053049;28;20246;-88
2022/05/25 07:31:24;;;;;;;5.37;4.87;;;14.50;78.20;;;;;;5053146;28;20210;-88
2022/05/25 07:34:14;;;;;;;5.83;4.60;;;14.70;79.30;;;;;;5053072;28;20222;-88
2022/05/25 07:36:41;;;;;;;8.17;5.50;;;14.60;78.60;;;;;;5052698;28;20233;-88
2022/05/25 07:39:11;;;;;;;7.20;5.80;;;14.70;79.50;;;;;;5052677;28;20212;-88
2022/05/25 07:41:40;;;;;;;11.10;5.60;;;14.80;78.70;;;;;;5053027;28;20187;-88
2022/05/25 07:44:09;;;;;;;5.23;4.20;;;15.00;79.30;;;;;;5052563;28;20184;-88
2022/05/25 07:46:35;;;;;;;7.43;4.87;;;15.00;78.00;;;;;;5053850;28;20259;-88
2022/05/25 07:49:02;;;;;;;5.60;3.97;;;15.10;77.20;;;;;;5054233;28;20690;-88
2022/05/25 07:51:28;;;;;;;6.90;4.13;;;15.10;76.00;;;;;;5052628;28;20206;-88
2022/05/25 07:53:59;;;;;;;6.03;3.60;;;15.20;76.50;;;;;;5052733;28;20231;-88
2022/05/25 07:56:36;;;;;;;4.77;3.83;;;15.30;75.50;;;;;;5052448;28;20310;-87
2022/05/25 07:59:04;;;;;;;4.93;4.10;;;15.20;74.20;;;;;;5053803;28;20199;-90
2022/05/25 08:07:06;;;;;;;6.67;5.00;;;15.00;76.20;;;;;;5053592;28;20171;-86
2022/05/25 08:09:32;;;;;;;6.97;4.30;;;15.20;75.90;;;;;;5052406;28;20179;-87
2022/05/25 08:11:58;;;;;;;8.60;5.13;;;15.30;74.80;;;;;;5052187;28;20179;-87
2022/05/25 08:14:25;;;;;;;5.53;4.15;;;15.40;74.90;;;;;;5052546;28;20175;-87
2022/05/25 08:16:52;;;;;;;7.50;4.38;;;15.60;74.00;;;;;;5053968;28;20247;-87
2022/05/25 08:19:17;;;;;;;5.80;4.55;;;15.70;74.40;;;;;;5057835;28;20207;-86
2022/05/25 08:21:43;;;;;;;5.70;4.38;;;15.80;74.90;;;;;;5056517;28;20175;-86
2022/05/25 08:24:09;;;;;;;6.45;4.38;;;16.00;74.90;;;;;;5057266;28;20164;-86
2022/05/25 08:26:34;;;;;;;4.88;3.75;;;16.30;75.20;;;;;;5058357;28;20195;-86
2022/05/25 08:29:00;;;;;;;8.32;5.05;;;16.20;70.50;;;;;;5056760;28;20643;-86
2022/05/25 08:31:26;;;;;;;4.60;3.95;;;16.10;70.80;;;;;;5056280;28;20172;-86
2022/05/25 08:33:51;;;;;;;6.47;4.57;;;16.10;72.10;;;;;;5057832;28;20202;-85
2022/05/25 08:36:17;;;;;;;5.28;4.47;;;16.10;71.10;;;;;;5055980;28;20215;-87
2022/05/25 08:38:42;;;;;;;5.03;3.67;;;16.00;71.20;;;;;;5056493;28;20226;-86
2022/05/25 08:41:08;;;;;;;5.03;4.38;;;15.90;71.10;;;;;;5056077;28;20645;-86
2022/05/25 08:43:46;;;;;;;6.32;4.13;;;15.90;70.50;;;;;;5057620;28;20199;-85
2022/05/25 08:46:16;;;;;;;7.70;5.13;;;16.00;71.00;;;;;;5056416;28;20182;-86
2022/05/25 08:48:43;;;;;;;8.85;5.25;;;16.20;71.90;;;;;;5056787;28;20279;-85
2022/05/25 08:51:13;;;;;;;5.60;4.45;;;16.30;70.90;;;;;;5078682;22;20758;-89
2022/05/25 08:53:40;;;;;;;4.43;3.95;;;16.50;71.10;;;;;;5055054;28;20203;-89
2022/05/25 08:56:15;;;;;;;6.00;3.55;;;16.80;70.90;;;;;;5056493;28;20259;-90
2022/05/25 08:58:48;;;;;;;5.90;4.40;;;17.00;69.00;;;;;;5055494;28;20160;-89
2022/05/25 09:01:25;;;;;;;5.30;4.47;;;17.00;67.70;;;;;;5055134;28;20711;-90
2022/05/25 09:03:54;;;;;;;4.32;3.92;;;16.90;67.60;;;;;;5056444;28;20684;-89
2022/05/25 09:07:07;;;;;;;4.78;4.15;;;16.90;65.40;;;;;;5055025;28;20626;-89
2022/05/25 09:09:38;;;;;;;5.60;4.70;;;17.10;69.00;;;;;;5038777;28;20199;-90
2022/05/25 09:12:06;;;;;;;5.45;4.40;;;17.20;66.80;;;;;;5056604;28;20693;-90
2022/05/25 09:14:38;;;;;;;8.15;3.20;;;17.10;67.60;;;;;;5056110;28;20176;-90
2022/05/25 09:17:11;;;;;;;4.45;3.20;;;16.90;65.70;;;;;;5055724;28;20175;-90
2022/05/25 09:19:41;;;;;;;3.75;2.67;;;17.00;67.80;;;;;;5057163;28;20214;-90
2022/05/25 09:22:16;;;;;;;4.22;2.35;;;17.10;63.80;;;;;;5054643;28;20199;-89
2022/05/25 09:24:44;;;;;;;8.68;3.03;;;17.20;65.40;;;;;;5055903;28;20243;-90
2022/05/25 09:27:12;;;;;;;2.97;2.30;;;17.20;67.30;;;;;;5054738;28;20180;-90
2022/05/25 09:29:40;;;;;;;4.45;1.98;;;17.40;67.00;;;;;;5053603;28;20208;-91
2022/05/25 09:32:36;;;;;;;2.33;1.90;;;17.40;61.20;;;;;;5054856;28;20239;-89
2022/05/25 09:35:26;;;;;;;2.60;1.98;;;17.30;63.70;;;;;;5054495;28;20164;-90
2022/05/25 09:38:05;;;;;;;3.25;1.88;;;17.40;63.30;;;;;;5055939;28;20187;-89
2022/05/25 09:40:40;;;;;;;3.92;2.50;;;17.40;62.60;;;;;;5055808;28;20508;-88
2022/05/25 09:43:09;;;;;;;3.88;2.20;;;17.50;62.40;;;;;;5055523;28;20517;-88
2022/05/25 09:45:43;;;;;;;2.22;2.03;;;17.60;62.20;;;;;;5054396;28;20646;-90
2022/05/25 09:48:16;;;;;;;2.60;2.10;;;17.70;60.50;;;;;;5055389;28;20200;-89
2022/05/25 09:50:49;;;;;;;15.10;2.00;;;17.80;61.80;;;;;;5054815;28;20235;-89
2022/05/25 09:53:17;;;;;;;4.38;1.92;;;17.90;61.40;;;;;;5055812;28;20211;-89
2022/05/25 09:55:49;;;;;;;6.60;2.10;;;18.00;60.70;;;;;;5055417;28;20642;-88
2022/05/25 09:58:43;;;;;;;4.40;1.63;;;18.00;60.00;;;;;;5054198;28;20661;-89
2022/05/25 10:01:26;;;;;;;1.77;1.67;;;18.10;63.30;;;;;;5053914;28;20291;-90
2022/05/25 10:03:53;;;;;;;5.30;2.28;;;18.30;61.50;;;;;;5055180;28;20157;-89
2022/05/25 10:06:27;;;;;;;2.90;2.40;;;18.20;60.90;;;;;;5055016;28;20271;-88
2022/05/25 10:09:24;;;;;;;3.95;2.05;;;18.20;61.80;;;;;;5053753;28;20711;-88
2022/05/25 10:11:52;;;;;;;6.25;2.45;;;18.10;61.30;;;;;;5054801;28;20573;-88
2022/05/25 10:14:33;;;;;;;2.92;2.17;;;18.00;61.30;;;;;;5055079;28;20630;-88
2022/05/25 10:17:16;;;;;;;3.55;2.05;;;18.10;61.40;;;;;;5053650;28;20168;-88
2022/05/25 10:19:53;;;;;;;4.90;1.60;;;18.00;59.30;;;;;;5053555;28;20160;-88
2022/05/25 10:22:46;;;;;;;4.45;1.65;;;17.90;59.60;;;;;;5053526;28;20196;-88
2022/05/25 10:25:29;;;;;;;8.50;1.77;;;18.10;59.80;;;;;;5053487;28;20179;-88
2022/05/25 10:27:57;;;;;;;4.88;1.50;;;18.20;57.40;;;;;;5054539;28;20171;-88
2022/05/25 10:36:49;;;;;;;1.98;1.60;;;18.40;59.50;;;;;;5055164;28;20166;-91
2022/05/25 10:39:29;;;;;;;1.80;1.70;;;18.60;57.00;;;;;;5053331;28;20247;-90
2022/05/25 10:42:22;;;;;;;6.20;1.60;;;18.70;58.40;;;;;;5053105;28;20192;-90
2022/05/25 10:45:08;;;;;;;2.70;1.65;;;18.80;57.50;;;;;;5043057;28;20191;-88
2022/05/25 10:47:49;;;;;;;2.33;1.55;;;19.00;59.50;;;;;;5054479;28;20183;-89
2022/05/25 10:50:36;;;;;;;2.25;1.63;;;18.80;57.40;;;;;;5053166;28;20203;-90
2022/05/25 10:53:19;;;;;;;6.40;2.17;;;18.90;57.30;;;;;;5054526;28;20257;-89
2022/05/25 10:56:04;;;;;;;3.13;1.27;;;19.00;56.80;;;;;;5052920;28;20183;-89
2022/05/25 10:58:49;;;;;;;1.20;1.10;;;19.10;55.60;;;;;;5052915;28;20238;-89
2022/05/25 11:01:33;;;;;;;2.45;1.60;;;19.10;53.70;;;;;;5052819;28;20215;-90
2022/05/25 11:04:18;;;;;;;2.42;1.52;;;19.30;56.70;;;;;;5054083;28;20168;-89
2022/05/25 11:07:11;;;;;;;2.78;1.30;;;19.30;54.60;;;;;;5052899;28;20676;-89
2022/05/25 11:09:39;;;;;;;4.50;1.48;;;19.30;55.60;;;;;;5052749;28;20172;-89
2022/05/25 11:12:25;;;;;;;3.17;1.40;;;19.20;56.50;;;;;;5052457;28;20746;-89
2022/05/25 11:15:16;;;;;;;2.78;1.45;;;19.30;56.90;;;;;;5053857;28;20243;-89
2022/05/25 11:18:12;;;;;;;5.10;2.00;;;19.40;55.50;;;;;;5052640;28;20168;-89
2022/05/25 11:20:42;;;;;;;1.92;1.40;;;19.50;55.00;;;;;;5052544;28;20199;-89
2022/05/25 11:23:20;;;;;;;8.15;1.58;;;19.50;54.60;;;;;;5053648;28;20662;-89
2022/05/25 11:26:09;;;;;;;4.25;1.50;;;19.50;54.00;;;;;;5053960;28;20164;-89
2022/05/25 11:28:58;;;;;;;9.75;1.27;;;19.60;54.10;;;;;;5054163;28;20571;-89
2022/05/25 11:31:54;;;;;;;18.65;2.35;;;19.80;53.20;;;;;;5052521;28;20234;-89
2022/05/25 11:34:54;;;;;;;1.10;1.00;;;19.80;53.00;;;;;;5052260;28;20186;-89
2022/05/25 11:37:39;;;;;;;9.63;1.48;;;19.90;53.80;;;;;;5053493;28;20183;-89
2022/05/25 11:40:40;;;;;;;1.20;0.90;;;20.10;52.80;;;;;;5052599;28;20234;-89
2022/05/25 11:43:24;;;;;;;6.28;1.42;;;20.20;52.30;;;;;;4975987;28;20178;-89
2022/05/25 11:45:50;;;;;;;3.15;1.00;;;20.20;51.50;;;;;;5045976;28;20192;-89
2022/05/25 11:48:31;;;;;;;3.53;1.25;;;20.00;51.60;;;;;;5053517;28;20174;-89
2022/05/25 11:51:19;;;;;;;1.17;1.00;;;19.70;50.10;;;;;;5052405;28;20269;-89
2022/05/25 11:54:03;;;;;;;1.50;1.00;;;19.70;52.30;;;;;;5053135;28;20636;-90
2022/05/25 11:56:31;;;;;;;1.77;0.90;;;20.20;54.20;;;;;;5052216;28;20199;-89
2022/05/25 11:59:19;;;;;;;2.15;1.13;;;20.20;52.70;;;;;;5052045;28;20172;-89
2022/05/25 12:02:00;;;;;;;7.82;1.55;;;20.30;50.00;;;;;;5052084;28;20192;-89
2022/05/25 12:04:53;;;;;;;7.57;1.08;;;20.10;48.60;;;;;;5052104;28;20179;-89
2022/05/25 12:07:56;;;;;;;11.88;1.77;;;20.10;52.00;;;;;;5052940;28;20179;-89
2022/05/25 12:10:36;;;;;;;5.43;1.13;;;20.00;49.90;;;;;;5051735;28;20176;-89
2022/05/25 12:13:29;;;;;;;1.40;0.80;;;20.00;50.60;;;;;;5052794;28;20587;-89
2022/05/25 12:16:07;;;;;;;3.40;1.00;;;19.80;52.50;;;;;;5051938;28;20168;-89
2022/05/25 12:18:43;;;;;;;9.82;1.23;;;19.50;49.70;;;;;;5051799;28;20621;-89
2022/05/25 12:21:13;;;;;;;1.00;0.75;;;19.40;52.10;;;;;;5051820;28;20195;-89
2022/05/25 12:23:46;;;;;;;7.82;0.93;;;19.60;51.70;;;;;;5051866;28;20187;-89
2022/05/25 12:26:28;;;;;;;1.27;0.75;;;19.80;51.90;;;;;;5052394;28;20182;-89
2022/05/25 12:29:08;;;;;;;1.38;0.80;;;19.70;50.60;;;;;;5051947;28;20623;-89
2022/05/25 12:31:35;;;;;;;2.97;0.80;;;19.80;53.00;;;;;;5051916;28;20203;-89
2022/05/25 12:34:02;;;;;;;1.13;0.60;;;20.10;52.10;;;;;;5051713;28;20242;-89
2022/05/25 12:36:29;;;;;;;1.15;0.80;;;20.30;51.50;;;;;;5051685;28;20641;-89
2022/05/25 12:38:55;;;;;;;1.67;0.70;;;20.40;49.20;;;;;;5051761;28;20200;-89
2022/05/25 12:41:35;;;;;;;7.22;0.95;;;20.50;50.20;;;;;;5051595;28;20227;-89
2022/05/25 12:50:43;;;;;;;0.88;0.70;;;20.70;47.60;;;;;;5053174;28;20210;-90
2022/05/25 12:53:46;;;;;;;1.85;0.77;;;20.20;47.90;;;;;;5051711;28;20192;-89
2022/05/25 12:56:36;;;;;;;1.35;0.80;;;20.00;49.50;;;;;;5051418;28;20715;-89
2022/05/25 12:59:12;;;;;;;1.33;0.68;;;19.80;50.80;;;;;;5051881;28;20544;-90
2022/05/25 13:01:41;;;;;;;12.48;1.17;;;19.90;50.30;;;;;;5051297;28;20282;-89
2022/05/25 13:04:40;;;;;;;1.52;0.80;;;20.20;49.90;;;;;;5052207;28;20535;-89
2022/05/25 13:07:08;;;;;;;4.50;0.90;;;20.30;49.40;;;;;;5054937;28;20206;-89
2022/05/25 13:09:43;;;;;;;2.58;0.90;;;20.20;49.70;;;;;;5055822;28;20646;-89
2022/05/25 13:12:40;;;;;;;6.57;1.35;;;20.50;49.20;;;;;;5054891;28;20191;-89
2022/05/25 13:15:20;;;;;;;0.98;0.70;;;20.40;49.40;;;;;;5054866;28;20172;-90
2022/05/25 13:17:50;;;;;;;2.05;0.80;;;20.20;49.40;;;;;;5054865;28;20179;-89
2022/05/25 13:20:46;;;;;;;2.25;1.20;;;20.10;50.10;;;;;;5055681;28;20172;-89
2022/05/25 13:23:51;;;;;;;2.80;0.95;;;20.00;50.00;;;;;;5054791;28;20183;-89
2022/05/25 13:26:21;;;;;;;4.13;0.88;;;19.90;50.10;;;;;;5054522;28;20190;-89
2022/05/25 13:28:53;;;;;;;3.63;0.80;;;19.80;50.90;;;;;;5056172;28;20187;-89
2022/05/25 13:31:47;;;;;;;11.95;1.15;;;20.00;52.70;;;;;;5054493;28;20211;-89
2022/05/25 13:34:17;;;;;;;1.60;1.00;;;20.30;50.00;;;;;;5054491;28;20196;-89
2022/05/25 13:36:57;;;;;;;0.90;0.80;;;20.60;48.80;;;;;;5055401;28;20610;-89
2022/05/25 13:39:26;;;;;;;3.58;1.02;;;20.90;50.30;;;;;;5055753;28;20187;-89
2022/05/25 13:41:51;;;;;;;4.20;1.27;;;20.80;48.20;;;;;;5054862;28;20188;-89